sensor_id;sensor_type;location;lat;lon;timestamp;pressure;altitude;pressure_sealevel;temperature;humidity
35647;BME280;28680;45.642;13.756;2023-02-25T00:08:28;100251.19;;;10.71;100.00
35647;BME280;28680;45.642;13.756;2023-02-25T00:13:39;100249.97;;;10.75;100.00
35647;BME280;28680;45.642;13.756;2023-02-25T00:16:07;100241.16;;;10.76;100.00
35647;BME280;28680;45.642;13.756;2023-02-25T00:18:33;100240.16;;;10.77;100.00
35647;BME280;28680;45.642;13.756;2023-02-25T00:21:03;100235.75;;;10.78;100.00
35647;BME280;28680;45.642;13.756;2023-02-25T00:23:30;100235.59;;;10.79;100.00
35647;BME280;28680;45.642;13.756;2023-02-25T00:26:03;100227.72;;;10.79;100.00
35647;BME280;28680;45.642;13.756;2023-02-25T00:28:34;100222.75;;;10.76;100.00
35647;BME280;28680;45.642;13.756;2023-02-25T00:31:09;100211.16;;;10.79;100.00
35647;BME280;28680;45.642;13.756;2023-02-25T00:33:35;100216.41;;;10.79;100.00
35647;BME280;28680;45.642;13.756;2023-02-25T00:36:09;100211.44;;;10.76;100.00
35647;BME280;28680;45.642;13.756;2023-02-25T00:38:36;100208.66;;;10.77;100.00
35647;BME280;28680;45.642;13.756;2023-02-25T00:41:09;100194.72;;;10.77;100.00
35647;BME280;28680;45.642;13.756;2023-02-25T00:43:43;100195.81;;;10.74;100.00
35647;BME280;28680;45.642;13.756;2023-02-25T00:46:12;100185.03;;;10.77;100.00
35647;BME280;28680;45.642;13.756;2023-02-25T00:48:39;100187.66;;;10.77;100.00
35647;BME280;28680;45.642;13.756;2023-02-25T00:51:13;100186.44;;;10.81;100.00
35647;BME280;28680;45.642;13.756;2023-02-25T00:53:40;100185.47;;;10.82;100.00
35647;BME280;28680;45.642;13.756;2023-02-25T00:56:08;100187.28;;;10.82;100.00
35647;BME280;28680;45.642;13.756;2023-02-25T00:58:38;100179.41;;;10.82;100.00
35647;BME280;28680;45.642;13.756;2023-02-25T01:01:05;100178.41;;;10.83;100.00
35647;BME280;28680;45.642;13.756;2023-02-25T01:03:39;100180.22;;;10.82;100.00
35647;BME280;28680;45.642;13.756;2023-02-25T01:06:31;100173.16;;;10.83;100.00
35647;BME280;28680;45.642;13.756;2023-02-25T01:08:58;100176.66;;;10.83;100.00
35647;BME280;28680;45.642;13.756;2023-02-25T01:11:32;100171.41;;;10.83;100.00
35647;BME280;28680;45.642;13.756;2023-02-25T01:14:12;100161.97;;;10.81;100.00
35647;BME280;28680;45.642;13.756;2023-02-25T01:16:38;100162.66;;;10.83;100.00
35647;BME280;28680;45.642;13.756;2023-02-25T01:19:10;100161.41;;;10.77;100.00
35647;BME280;28680;45.642;13.756;2023-02-25T01:21:43;100157.00;;;10.78;100.00
35647;BME280;28680;45.642;13.756;2023-02-25T01:24:22;100148.84;;;10.81;100.00
35647;BME280;28680;45.642;13.756;2023-02-25T01:26:51;100140.03;;;10.82;100.00
35647;BME280;28680;45.642;13.756;2023-02-25T01:29:22;100134.78;;;10.82;100.00
35647;BME280;28680;45.642;13.756;2023-02-25T01:31:53;100122.34;;;10.84;100.00
35647;BME280;28680;45.642;13.756;2023-02-25T01:34:19;100110.03;;;10.84;100.00
35647;BME280;28680;45.642;13.756;2023-02-25T01:36:46;100111.16;;;10.82;100.00
35647;BME280;28680;45.642;13.756;2023-02-25T01:39:14;100108.22;;;10.85;100.00
35647;BME280;28680;45.642;13.756;2023-02-25T01:41:40;100106.31;;;10.87;100.00
35647;BME280;28680;45.642;13.756;2023-02-25T01:44:17;100093.88;;;10.89;100.00
35647;BME280;28680;45.642;13.756;2023-02-25T01:46:46;100093.03;;;10.88;100.00
35647;BME280;28680;45.642;13.756;2023-02-25T01:51:51;100091.25;;;10.89;100.00
35647;BME280;28680;45.642;13.756;2023-02-25T01:54:19;100088.06;;;10.85;100.00
35647;BME280;28680;45.642;13.756;2023-02-25T01:56:53;100082.69;;;10.87;100.00
35647;BME280;28680;45.642;13.756;2023-02-25T01:59:24;100083.66;;;10.86;100.00
35647;BME280;28680;45.642;13.756;2023-02-25T02:01:51;100070.38;;;10.87;100.00
35647;BME280;28680;45.642;13.756;2023-02-25T02:04:19;100066.94;;;10.87;100.00
35647;BME280;28680;45.642;13.756;2023-02-25T02:06:48;100069.81;;;10.93;100.00
35647;BME280;28680;45.642;13.756;2023-02-25T02:09:20;100060.16;;;10.94;100.00
35647;BME280;28680;45.642;13.756;2023-02-25T02:11:46;100060.28;;;10.92;100.00
35647;BME280;28680;45.642;13.756;2023-02-25T02:14:19;100068.31;;;10.91;100.00
35647;BME280;28680;45.642;13.756;2023-02-25T02:37:39;100032.09;;;10.85;100.00
35647;BME280;28680;45.642;13.756;2023-02-25T02:43:38;100020.22;;;10.90;100.00
35647;BME280;28680;45.642;13.756;2023-02-25T02:46:19;100026.69;;;10.96;100.00
35647;BME280;28680;45.642;13.756;2023-02-25T02:48:57;100018.69;;;10.98;100.00
35647;BME280;28680;45.642;13.756;2023-02-25T02:51:34;100012.47;;;10.99;100.00
35647;BME280;28680;45.642;13.756;2023-02-25T02:54:04;100012.75;;;10.96;100.00
35647;BME280;28680;45.642;13.756;2023-02-25T02:56:34;100020.34;;;10.99;100.00
35647;BME280;28680;45.642;13.756;2023-02-25T02:59:36;100009.31;;;10.95;100.00
35647;BME280;28680;45.642;13.756;2023-02-25T03:02:24;100016.88;;;10.98;100.00
35647;BME280;28680;45.642;13.756;2023-02-25T03:04:56;100029.19;;;10.98;100.00
35647;BME280;28680;45.642;13.756;2023-02-25T03:07:25;100024.25;;;10.95;100.00
35647;BME280;28680;45.642;13.756;2023-02-25T03:09:58;100024.94;;;10.97;100.00
35647;BME280;28680;45.642;13.756;2023-02-25T03:12:26;100024.63;;;11.00;100.00
35647;BME280;28680;45.642;13.756;2023-02-25T03:14:52;100019.66;;;10.97;100.00
35647;BME280;28680;45.642;13.756;2023-02-25T03:17:30;100019.00;;;10.95;100.00
35647;BME280;28680;45.642;13.756;2023-02-25T03:20:19;100007.63;;;10.94;100.00
35647;BME280;28680;45.642;13.756;2023-02-25T03:22:49;100002.38;;;10.94;100.00
35647;BME280;28680;45.642;13.756;2023-02-25T03:25:28;100001.69;;;10.92;100.00
35647;BME280;28680;45.642;13.756;2023-02-25T03:28:48;100001.16;;;10.88;100.00
35647;BME280;28680;45.642;13.756;2023-02-25T03:37:21;100011.25;;;10.83;100.00
35647;BME280;28680;45.642;13.756;2023-02-25T03:39:56;100013.47;;;10.78;100.00
35647;BME280;28680;45.642;13.756;2023-02-25T03:42:30;100012.09;;;10.74;100.00
35647;BME280;28680;45.642;13.756;2023-02-25T03:45:00;100024.66;;;10.70;100.00
35647;BME280;28680;45.642;13.756;2023-02-25T03:47:30;100011.25;;;10.73;100.00
35647;BME280;28680;45.642;13.756;2023-02-25T03:50:19;100011.25;;;10.64;100.00
35647;BME280;28680;45.642;13.756;2023-02-25T03:52:45;100011.69;;;10.59;100.00
35647;BME280;28680;45.642;13.756;2023-02-25T03:55:16;99998.69;;;10.58;100.00
35647;BME280;28680;45.642;13.756;2023-02-25T03:57:45;99996.88;;;10.58;100.00
35647;BME280;28680;45.642;13.756;2023-02-25T04:02:47;99985.00;;;10.64;100.00
35647;BME280;28680;45.642;13.756;2023-02-25T04:05:16;99985.84;;;10.64;100.00
35647;BME280;28680;45.642;13.756;2023-02-25T04:07:43;99987.22;;;10.68;100.00
35647;BME280;28680;45.642;13.756;2023-02-25T04:10:12;99979.63;;;10.65;100.00
35647;BME280;28680;45.642;13.756;2023-02-25T04:12:38;99970.09;;;10.64;100.00
35647;BME280;28680;45.642;13.756;2023-02-25T04:15:06;99964.28;;;10.70;100.00
35647;BME280;28680;45.642;13.756;2023-02-25T04:17:33;99954.91;;;10.78;100.00
35647;BME280;28680;45.642;13.756;2023-02-25T04:19:59;99958.06;;;10.81;100.00
35647;BME280;28680;45.642;13.756;2023-02-25T04:22:25;99941.34;;;10.82;100.00
35647;BME280;28680;45.642;13.756;2023-02-25T04:24:51;99931.25;;;10.87;100.00
35647;BME280;28680;45.642;13.756;2023-02-25T04:27:17;99940.50;;;10.91;100.00
35647;BME280;28680;45.642;13.756;2023-02-25T04:29:47;99938.13;;;10.88;100.00
35647;BME280;28680;45.642;13.756;2023-02-25T04:32:12;99941.03;;;10.95;100.00
35647;BME280;28680;45.642;13.756;2023-02-25T04:34:47;99926.38;;;10.92;100.00
35647;BME280;28680;45.642;13.756;2023-02-25T04:37:13;99937.44;;;10.96;100.00
35647;BME280;28680;45.642;13.756;2023-02-25T04:39:39;99944.94;;;10.91;100.00
35647;BME280;28680;45.642;13.756;2023-02-25T04:42:06;99957.50;;;10.87;100.00
35647;BME280;28680;45.642;13.756;2023-02-25T04:44:32;99956.69;;;10.87;100.00
35647;BME280;28680;45.642;13.756;2023-02-25T04:46:57;99958.75;;;10.83;100.00
35647;BME280;28680;45.642;13.756;2023-02-25T04:49:23;99969.53;;;10.80;100.00
35647;BME280;28680;45.642;13.756;2023-02-25T04:51:50;99979.34;;;10.78;100.00
35647;BME280;28680;45.642;13.756;2023-02-25T04:54:20;99985.97;;;10.72;100.00
35647;BME280;28680;45.642;13.756;2023-02-25T04:56:46;99990.13;;;10.65;100.00
35647;BME280;28680;45.642;13.756;2023-02-25T04:59:13;99995.94;;;10.59;100.00
35647;BME280;28680;45.642;13.756;2023-02-25T05:01:40;99999.38;;;10.60;100.00
35647;BME280;28680;45.642;13.756;2023-02-25T05:04:06;99992.63;;;10.57;100.00
35647;BME280;28680;45.642;13.756;2023-02-25T05:06:32;99988.63;;;10.53;100.00
35647;BME280;28680;45.642;13.756;2023-02-25T06:15:09;100011.72;;;10.19;100.00
35647;BME280;28680;45.642;13.756;2023-02-25T06:17:35;100015.75;;;10.23;100.00
35647;BME280;28680;45.642;13.756;2023-02-25T06:20:01;100026.09;;;10.24;100.00
35647;BME280;28680;45.642;13.756;2023-02-25T06:22:27;100018.38;;;10.23;100.00
35647;BME280;28680;45.642;13.756;2023-02-25T06:24:53;100023.34;;;10.26;100.00
35647;BME280;28680;45.642;13.756;2023-02-25T06:27:19;100019.47;;;10.30;100.00
35647;BME280;28680;45.642;13.756;2023-02-25T06:29:47;100029.56;;;10.25;100.00
35647;BME280;28680;45.642;13.756;2023-02-25T06:32:14;100026.44;;;10.31;100.00
35647;BME280;28680;45.642;13.756;2023-02-25T06:34:40;100003.47;;;10.23;100.00
35647;BME280;28680;45.642;13.756;2023-02-25T06:37:07;100013.31;;;10.31;100.00
35647;BME280;28680;45.642;13.756;2023-02-25T06:39:33;100017.72;;;10.30;100.00
35647;BME280;28680;45.642;13.756;2023-02-25T06:42:00;100012.88;;;10.36;100.00
35647;BME280;28680;45.642;13.756;2023-02-25T06:44:26;100029.59;;;10.34;100.00
35647;BME280;28680;45.642;13.756;2023-02-25T06:46:54;100021.44;;;10.38;100.00
35647;BME280;28680;45.642;13.756;2023-02-25T06:49:22;100016.19;;;10.38;100.00
35647;BME280;28680;45.642;13.756;2023-02-25T06:51:48;100018.44;;;10.42;100.00
35647;BME280;28680;45.642;13.756;2023-02-25T06:54:15;100022.69;;;10.43;100.00
35647;BME280;28680;45.642;13.756;2023-02-25T06:56:42;100012.75;;;10.47;100.00
35647;BME280;28680;45.642;13.756;2023-02-25T06:59:08;99998.81;;;10.46;100.00
35647;BME280;28680;45.642;13.756;2023-02-25T07:01:34;99995.63;;;10.43;100.00
35647;BME280;28680;45.642;13.756;2023-02-25T07:04:03;99995.94;;;10.40;100.00
35647;BME280;28680;45.642;13.756;2023-02-25T07:06:29;99993.72;;;10.45;100.00
35647;BME280;28680;45.642;13.756;2023-02-25T07:08:55;100000.63;;;10.46;100.00
35647;BME280;28680;45.642;13.756;2023-02-25T07:11:29;100000.50;;;10.47;100.00
35647;BME280;28680;45.642;13.756;2023-02-25T07:13:56;99987.09;;;10.50;100.00
35647;BME280;28680;45.642;13.756;2023-02-25T07:16:22;99985.31;;;10.51;100.00
35647;BME280;28680;45.642;13.756;2023-02-25T07:18:48;99989.69;;;10.50;100.00
35647;BME280;28680;45.642;13.756;2023-02-25T07:21:15;99998.13;;;10.64;100.00
35647;BME280;28680;45.642;13.756;2023-02-25T07:23:43;99993.88;;;10.63;100.00
35647;BME280;28680;45.642;13.756;2023-02-25T07:26:18;99983.63;;;10.69;100.00
35647;BME280;28680;45.642;13.756;2023-02-25T07:28:44;99978.38;;;10.69;100.00
35647;BME280;28680;45.642;13.756;2023-02-25T07:31:16;99974.63;;;10.62;100.00
35647;BME280;28680;45.642;13.756;2023-02-25T07:33:43;99981.69;;;10.62;100.00
35647;BME280;28680;45.642;13.756;2023-02-25T07:36:10;99993.19;;;10.61;100.00
35647;BME280;28680;45.642;13.756;2023-02-25T07:38:37;99999.66;;;10.66;100.00
35647;BME280;28680;45.642;13.756;2023-02-25T07:41:10;99999.78;;;10.65;100.00
35647;BME280;28680;45.642;13.756;2023-02-25T07:43:36;99997.72;;;10.68;100.00
35647;BME280;28680;45.642;13.756;2023-02-25T07:46:03;99977.69;;;10.67;100.00
35647;BME280;28680;45.642;13.756;2023-02-25T07:48:29;99977.56;;;10.69;100.00
35647;BME280;28680;45.642;13.756;2023-02-25T07:50:55;99969.41;;;10.72;100.00
35647;BME280;28680;45.642;13.756;2023-02-25T07:53:22;99967.88;;;10.69;100.00
35647;BME280;28680;45.642;13.756;2023-02-25T07:55:49;99959.44;;;10.66;100.00
35647;BME280;28680;45.642;13.756;2023-02-25T07:58:15;99958.91;;;10.72;100.00
35647;BME280;28680;45.642;13.756;2023-02-25T08:00:41;99967.59;;;10.72;100.00
35647;BME280;28680;45.642;13.756;2023-02-25T08:03:09;99956.53;;;10.79;100.00
35647;BME280;28680;45.642;13.756;2023-02-25T08:05:36;99951.41;;;10.77;100.00
35647;BME280;28680;45.642;13.756;2023-02-25T08:08:03;99952.41;;;10.76;100.00
35647;BME280;28680;45.642;13.756;2023-02-25T08:10:30;99951.97;;;10.81;100.00
35647;BME280;28680;45.642;13.756;2023-02-25T08:12:56;99940.38;;;10.83;100.00
35647;BME280;28680;45.642;13.756;2023-02-25T08:15:22;99947.81;;;10.88;100.00
35647;BME280;28680;45.642;13.756;2023-02-25T08:17:48;99938.13;;;10.88;100.00
35647;BME280;28680;45.642;13.756;2023-02-25T08:20:17;99940.34;;;10.93;100.00
35647;BME280;28680;45.642;13.756;2023-02-25T08:22:43;99941.75;;;10.87;100.00
35647;BME280;28680;45.642;13.756;2023-02-25T08:25:09;99940.75;;;10.88;100.00
35647;BME280;28680;45.642;13.756;2023-02-25T08:27:36;99945.19;;;10.88;100.00
35647;BME280;28680;45.642;13.756;2023-02-25T08:30:03;99934.97;;;10.95;100.00
35647;BME280;28680;45.642;13.756;2023-02-25T08:32:34;99931.91;;;10.99;100.00
35647;BME280;28680;45.642;13.756;2023-02-25T08:35:00;99930.09;;;11.00;100.00
35647;BME280;28680;45.642;13.756;2023-02-25T08:37:27;99932.88;;;10.98;100.00
35647;BME280;28680;45.642;13.756;2023-02-25T08:39:54;99935.34;;;11.00;100.00
35647;BME280;28680;45.642;13.756;2023-02-25T08:42:22;99929.16;;;11.01;100.00
35647;BME280;28680;45.642;13.756;2023-02-25T08:44:48;99928.03;;;11.03;100.00
35647;BME280;28680;45.642;13.756;2023-02-25T08:47:15;99929.69;;;11.04;100.00
35647;BME280;28680;45.642;13.756;2023-02-25T08:49:41;99934.81;;;11.06;100.00
35647;BME280;28680;45.642;13.756;2023-02-25T08:52:09;99927.59;;;11.08;100.00
35647;BME280;28680;45.642;13.756;2023-02-25T08:54:39;99935.50;;;11.08;100.00
35647;BME280;28680;45.642;13.756;2023-02-25T08:57:06;99921.22;;;11.10;100.00
35647;BME280;28680;45.642;13.756;2023-02-25T08:59:32;99928.97;;;11.12;100.00
35647;BME280;28680;45.642;13.756;2023-02-25T09:02:05;99926.47;;;11.10;100.00
35647;BME280;28680;45.642;13.756;2023-02-25T09:04:32;99919.16;;;11.14;100.00
35647;BME280;28680;45.642;13.756;2023-02-25T09:07:00;99913.63;;;11.17;100.00
35647;BME280;28680;45.642;13.756;2023-02-25T09:09:26;99913.31;;;11.20;100.00
35647;BME280;28680;45.642;13.756;2023-02-25T09:11:52;99908.75;;;11.22;100.00
35647;BME280;28680;45.642;13.756;2023-02-25T09:14:19;99917.47;;;11.23;100.00
35647;BME280;28680;45.642;13.756;2023-02-25T09:16:46;99915.53;;;11.25;100.00
35647;BME280;28680;45.642;13.756;2023-02-25T09:19:13;99917.84;;;11.28;100.00
35647;BME280;28680;45.642;13.756;2023-02-25T09:21:42;99918.53;;;11.30;100.00
35647;BME280;28680;45.642;13.756;2023-02-25T09:24:08;99920.06;;;11.32;100.00
35647;BME280;28680;45.642;13.756;2023-02-25T09:26:35;99917.78;;;11.38;100.00
35647;BME280;28680;45.642;13.756;2023-02-25T09:29:05;99923.59;;;11.41;100.00
35647;BME280;28680;45.642;13.756;2023-02-25T09:31:31;99911.31;;;11.42;100.00
35647;BME280;28680;45.642;13.756;2023-02-25T09:34:04;99913.22;;;11.40;100.00
35647;BME280;28680;45.642;13.756;2023-02-25T09:36:31;99905.72;;;11.45;100.00
35647;BME280;28680;45.642;13.756;2023-02-25T09:38:57;99911.00;;;11.45;100.00
35647;BME280;28680;45.642;13.756;2023-02-25T09:41:27;99895.09;;;11.46;100.00
35647;BME280;28680;45.642;13.756;2023-02-25T09:46:35;99887.69;;;11.60;100.00
35647;BME280;28680;45.642;13.756;2023-02-25T09:49:22;99883.34;;;11.68;100.00
35647;BME280;28680;45.642;13.756;2023-02-25T09:52:01;99887.75;;;11.68;100.00
35647;BME280;28680;45.642;13.756;2023-02-25T09:54:41;99887.75;;;11.68;100.00
35647;BME280;28680;45.642;13.756;2023-02-25T09:57:15;99885.13;;;11.68;100.00
35647;BME280;28680;45.642;13.756;2023-02-25T09:59:44;99885.53;;;11.73;100.00
35647;BME280;28680;45.642;13.756;2023-02-25T10:02:36;99880.50;;;11.80;100.00
35647;BME280;28680;45.642;13.756;2023-02-25T10:05:26;99872.44;;;11.91;100.00
35647;BME280;28680;45.642;13.756;2023-02-25T10:11:11;99870.59;;;12.09;100.00
35647;BME280;28680;45.642;13.756;2023-02-25T10:13:53;99864.81;;;12.24;100.00
35647;BME280;28680;45.642;13.756;2023-02-25T10:25:27;99835.00;;;12.67;100.00
35647;BME280;28680;45.642;13.756;2023-02-25T10:28:05;99834.97;;;12.85;100.00
35647;BME280;28680;45.642;13.756;2023-02-25T10:31:01;99833.38;;;13.01;100.00
35647;BME280;28680;45.642;13.756;2023-02-25T10:33:36;99820.56;;;13.40;100.00
35647;BME280;28680;45.642;13.756;2023-02-25T10:36:36;99821.78;;;14.03;100.00
35647;BME280;28680;45.642;13.756;2023-02-25T10:39:04;99806.09;;;14.02;100.00
35647;BME280;28680;45.642;13.756;2023-02-25T10:41:30;99795.38;;;13.62;100.00
35647;BME280;28680;45.642;13.756;2023-02-25T10:43:56;99799.97;;;13.44;100.00
35647;BME280;28680;45.642;13.756;2023-02-25T10:46:35;99798.28;;;13.35;100.00
35647;BME280;28680;45.642;13.756;2023-02-25T10:49:16;99797.63;;;13.33;100.00
35647;BME280;28680;45.642;13.756;2023-02-25T10:52:18;99793.84;;;13.35;100.00
35647;BME280;28680;45.642;13.756;2023-02-25T10:54:53;99794.50;;;13.45;100.00
35647;BME280;28680;45.642;13.756;2023-02-25T10:57:40;99777.38;;;13.41;100.00
35647;BME280;28680;45.642;13.756;2023-02-25T11:00:33;99783.00;;;13.38;100.00
35647;BME280;28680;45.642;13.756;2023-02-25T11:03:00;99777.22;;;13.35;100.00
35647;BME280;28680;45.642;13.756;2023-02-25T11:05:38;99759.75;;;13.34;100.00
35647;BME280;28680;45.642;13.756;2023-02-25T11:08:30;99754.84;;;13.88;100.00
35647;BME280;28680;45.642;13.756;2023-02-25T11:11:37;99758.28;;;13.89;100.00
35647;BME280;28680;45.642;13.756;2023-02-25T11:14:16;99752.69;;;13.59;100.00
35647;BME280;28680;45.642;13.756;2023-02-25T11:16:44;99750.38;;;13.56;100.00
35647;BME280;28680;45.642;13.756;2023-02-25T11:19:27;99744.28;;;13.55;100.00
35647;BME280;28680;45.642;13.756;2023-02-25T11:21:54;99734.91;;;13.69;100.00
35647;BME280;28680;45.642;13.756;2023-02-25T11:24:33;99729.63;;;13.86;100.00
35647;BME280;28680;45.642;13.756;2023-02-25T11:27:02;99728.81;;;13.69;100.00
35647;BME280;28680;45.642;13.756;2023-02-25T11:29:34;99729.94;;;13.66;100.00
35647;BME280;28680;45.642;13.756;2023-02-25T11:32:16;99722.53;;;13.70;100.00
35647;BME280;28680;45.642;13.756;2023-02-25T11:34:54;99711.50;;;13.82;100.00
35647;BME280;28680;45.642;13.756;2023-02-25T11:37:38;99710.16;;;13.95;100.00
35647;BME280;28680;45.642;13.756;2023-02-25T11:40:26;99708.00;;;14.07;100.00
35647;BME280;28680;45.642;13.756;2023-02-25T11:43:21;99706.03;;;14.09;100.00
35647;BME280;28680;45.642;13.756;2023-02-25T11:46:29;99692.66;;;14.02;100.00
35647;BME280;28680;45.642;13.756;2023-02-25T11:49:19;99696.09;;;14.19;100.00
35647;BME280;28680;45.642;13.756;2023-02-25T11:52:25;99690.47;;;14.14;100.00
35647;BME280;28680;45.642;13.756;2023-02-25T11:55:03;99690.31;;;14.15;100.00
35647;BME280;28680;45.642;13.756;2023-02-25T12:01:09;99682.09;;;14.02;100.00
35647;BME280;28680;45.642;13.756;2023-02-25T12:04:17;99679.78;;;14.07;100.00
35647;BME280;28680;45.642;13.756;2023-02-25T12:07:08;99668.44;;;14.07;100.00
35647;BME280;28680;45.642;13.756;2023-02-25T12:24:40;99671.75;;;13.92;100.00
35647;BME280;28680;45.642;13.756;2023-02-25T12:37:25;99688.91;;;14.44;100.00
35647;BME280;28680;45.642;13.756;2023-02-25T12:43:37;99670.91;;;14.48;100.00
35647;BME280;28680;45.642;13.756;2023-02-25T12:46:25;99674.34;;;14.56;100.00
35647;BME280;28680;45.642;13.756;2023-02-25T12:49:05;99683.22;;;14.72;100.00
35647;BME280;28680;45.642;13.756;2023-02-25T13:09:38;99661.19;;;15.34;100.00
35647;BME280;28680;45.642;13.756;2023-02-25T13:18:33;99667.78;;;15.15;100.00
35647;BME280;28680;45.642;13.756;2023-02-25T13:27:04;99672.97;;;14.77;100.00
35647;BME280;28680;45.642;13.756;2023-02-25T13:39:44;99663.44;;;14.68;100.00
35647;BME280;28680;45.642;13.756;2023-02-25T13:42:29;99671.75;;;14.48;100.00
35647;BME280;28680;45.642;13.756;2023-02-25T14:22:31;99648.69;;;13.86;100.00
35647;BME280;28680;45.642;13.756;2023-02-25T14:28:30;99646.41;;;13.75;100.00
35647;BME280;28680;45.642;13.756;2023-02-25T14:45:20;99628.13;;;13.65;100.00
35647;BME280;28680;45.642;13.756;2023-02-25T14:48:09;99631.59;;;13.57;100.00
35647;BME280;28680;45.642;13.756;2023-02-25T14:56:50;99626.06;;;14.00;100.00
35647;BME280;28680;45.642;13.756;2023-02-25T15:02:55;99621.94;;;13.97;100.00
35647;BME280;28680;45.642;13.756;2023-02-25T15:05:56;99627.94;;;13.75;100.00
35647;BME280;28680;45.642;13.756;2023-02-25T15:11:30;99616.75;;;13.23;100.00
35647;BME280;28680;45.642;13.756;2023-02-25T15:20:34;99619.03;;;12.94;100.00
35647;BME280;28680;45.642;13.756;2023-02-25T15:25:51;99621.34;;;12.97;100.00
35647;BME280;28680;45.642;13.756;2023-02-25T15:28:40;99623.47;;;13.01;100.00
35647;BME280;28680;45.642;13.756;2023-02-25T15:31:30;99623.47;;;13.01;100.00
35647;BME280;28680;45.642;13.756;2023-02-25T15:36:47;99625.47;;;12.91;100.00
35647;BME280;28680;45.642;13.756;2023-02-25T15:42:10;99622.81;;;12.91;100.00
35647;BME280;28680;45.642;13.756;2023-02-25T15:44:41;99628.56;;;12.95;100.00
35647;BME280;28680;45.642;13.756;2023-02-25T15:47:24;99629.56;;;12.94;100.00
35647;BME280;28680;45.642;13.756;2023-02-25T15:49:52;99623.63;;;12.92;100.00
35647;BME280;28680;45.642;13.756;2023-02-25T15:52:56;99619.50;;;12.89;100.00
35647;BME280;28680;45.642;13.756;2023-02-25T15:55:40;99627.91;;;12.93;100.00
35647;BME280;28680;45.642;13.756;2023-02-25T16:00:57;99627.59;;;12.87;100.00
35647;BME280;28680;45.642;13.756;2023-02-25T16:08:38;99625.47;;;12.91;100.00
35647;BME280;28680;45.642;13.756;2023-02-25T16:13:58;99636.00;;;12.91;100.00
35647;BME280;28680;45.642;13.756;2023-02-25T16:16:27;99635.16;;;12.91;100.00
35647;BME280;28680;45.642;13.756;2023-02-25T16:18:55;99634.47;;;12.88;100.00
35647;BME280;28680;45.642;13.756;2023-02-25T16:24:10;99638.78;;;12.90;100.00
35647;BME280;28680;45.642;13.756;2023-02-25T16:40:42;99653.13;;;12.44;100.00
35647;BME280;28680;45.642;13.756;2023-02-25T16:43:26;99649.50;;;12.45;100.00
35647;BME280;28680;45.642;13.756;2023-02-25T16:46:00;99648.03;;;12.43;100.00
35647;BME280;28680;45.642;13.756;2023-02-25T16:48:36;99640.72;;;12.28;100.00
35647;BME280;28680;45.642;13.756;2023-02-25T16:51:15;99651.22;;;12.20;100.00
35647;BME280;28680;45.642;13.756;2023-02-25T16:53:47;99657.00;;;12.24;100.00
35647;BME280;28680;45.642;13.756;2023-02-25T16:56:22;99655.66;;;12.20;100.00
35647;BME280;28680;45.642;13.756;2023-02-25T16:59:24;99655.44;;;12.13;100.00
35647;BME280;28680;45.642;13.756;2023-02-25T17:02:00;99651.63;;;12.07;100.00
35647;BME280;28680;45.642;13.756;2023-02-25T17:04:36;99655.94;;;12.08;100.00
35647;BME280;28680;45.642;13.756;2023-02-25T17:07:28;99663.97;;;12.07;100.00
35647;BME280;28680;45.642;13.756;2023-02-25T17:10:02;99657.38;;;12.03;100.00
35647;BME280;28680;45.642;13.756;2023-02-25T17:12:40;99660.81;;;12.03;100.00
35647;BME280;28680;45.642;13.756;2023-02-25T17:15:25;99662.31;;;12.06;100.00
35647;BME280;28680;45.642;13.756;2023-02-25T17:18:07;99662.78;;;12.01;100.00
35647;BME280;28680;45.642;13.756;2023-02-25T17:20:35;99665.63;;;12.08;100.00
35647;BME280;28680;45.642;13.756;2023-02-25T17:23:11;99668.94;;;12.10;100.00
35647;BME280;28680;45.642;13.756;2023-02-25T17:25:46;99665.13;;;12.04;100.00
35647;BME280;28680;45.642;13.756;2023-02-25T17:28:25;99669.53;;;12.04;100.00
35647;BME280;28680;45.642;13.756;2023-02-25T17:31:10;99668.41;;;12.06;100.00
35647;BME280;28680;45.642;13.756;2023-02-25T17:33:55;99659.06;;;12.12;100.00
35647;BME280;28680;45.642;13.756;2023-02-25T17:36:29;99665.50;;;12.18;100.00
35647;BME280;28680;45.642;13.756;2023-02-25T17:39:17;99656.97;;;12.16;100.00
35647;BME280;28680;45.642;13.756;2023-02-25T17:41:44;99658.75;;;12.15;100.00
35647;BME280;28680;45.642;13.756;2023-02-25T17:47:20;99655.94;;;12.08;100.00
35647;BME280;28680;45.642;13.756;2023-02-25T17:49:50;99653.44;;;12.07;100.00
35647;BME280;28680;45.642;13.756;2023-02-25T17:52:27;99662.63;;;12.03;100.00
35647;BME280;28680;45.642;13.756;2023-02-25T17:55:19;99658.16;;;11.95;100.00
35647;BME280;28680;45.642;13.756;2023-02-25T17:57:46;99659.59;;;11.89;100.00
35647;BME280;28680;45.642;13.756;2023-02-25T18:00:23;99661.38;;;11.89;100.00
35647;BME280;28680;45.642;13.756;2023-02-25T18:03:18;99650.50;;;11.84;100.00
35647;BME280;28680;45.642;13.756;2023-02-25T18:05:54;99648.38;;;11.87;100.00
35647;BME280;28680;45.642;13.756;2023-02-25T18:08:29;99643.81;;;11.89;100.00
35647;BME280;28680;45.642;13.756;2023-02-25T18:13:52;99641.94;;;11.82;100.00
35647;BME280;28680;45.642;13.756;2023-02-25T18:16:40;99647.38;;;11.88;100.00
35647;BME280;28680;45.642;13.756;2023-02-25T18:19:45;99644.63;;;11.90;100.00
35647;BME280;28680;45.642;13.756;2023-02-25T18:22:36;99657.78;;;11.90;100.00
35647;BME280;28680;45.642;13.756;2023-02-25T18:25:28;99652.38;;;11.92;100.00